Time;durP1;ratioP1;P1;durP2;ratioP2;P2;SDS_P1;SDS_P2;PMS_P1;PMS_P2;Temp;Humidity;BMP_temperature;BMP_pressure;BME280_temperature;BME280_humidity;BME280_pressure;Samples;Min_cycle;Max_cycle;Signal;HPM_P1;HPM_P2
2023/01/23 00:00:40;;;;;;;17.88;7.72;;;;;;;;;;5050761;28;20049;-71
2023/01/23 00:03:06;;;;;;;15.80;7.28;;;;;;;;;;5050493;28;20132;-71
2023/01/23 00:05:32;;;;;;;14.15;7.00;;;;;;;;;;5050918;28;20037;-71
2023/01/23 00:07:58;;;;;;;16.13;7.00;;;;;;;;;;5034217;28;20045;-71
2023/01/23 00:10:24;;;;;;;15.18;7.25;;;;;;;;;;5051892;28;20045;-71
2023/01/23 00:12:52;;;;;;;18.38;7.70;;;;;;;;;;5052008;28;20036;-71
2023/01/23 00:15:18;;;;;;;13.82;7.43;;;;;;;;;;5033866;28;20537;-71
2023/01/23 00:17:44;;;;;;;15.40;7.60;;;;;;;;;;5050673;28;20052;-71
2023/01/23 00:20:11;;;;;;;16.75;7.32;;;;;;;;;;5050346;28;20049;-71
2023/01/23 00:22:38;;;;;;;17.48;8.07;;;;;;;;;;5034508;28;20095;-71
2023/01/23 00:25:05;;;;;;;15.63;7.93;;;;;;;;;;5054191;28;20049;-71
2023/01/23 00:27:31;;;;;;;16.92;7.15;;;;;;;;;;5054972;28;20053;-71
2023/01/23 00:29:58;;;;;;;18.98;7.95;;;;;;;;;;5054664;28;20512;-71
2023/01/23 00:32:24;;;;;;;17.83;8.13;;;;;;;;;;5054625;28;20501;-71
2023/01/23 00:34:50;;;;;;;18.73;7.65;;;;;;;;;;5054744;28;20566;-71
2023/01/23 00:37:16;;;;;;;15.82;8.15;;;;;;;;;;5054471;28;20493;-71
2023/01/23 00:39:44;;;;;;;16.58;8.07;;;;;;;;;;5054455;28;20123;-70
2023/01/23 00:42:10;;;;;;;16.92;7.60;;;;;;;;;;5054395;28;20080;-71
2023/01/23 00:44:36;;;;;;;22.13;8.52;;;;;;;;;;5038076;28;20466;-71
2023/01/23 00:47:02;;;;;;;17.40;7.47;;;;;;;;;;5055710;28;20065;-71
2023/01/23 00:49:29;;;;;;;19.85;8.75;;;;;;;;;;5054098;28;20052;-71
2023/01/23 00:51:55;;;;;;;19.02;8.45;;;;;;;;;;5037671;28;20041;-70
2023/01/23 00:54:24;;;;;;;19.10;8.55;;;;;;;;;;5054044;28;20124;-70
2023/01/23 00:56:50;;;;;;;20.50;8.30;;;;;;;;;;5054234;28;20048;-70
2023/01/23 00:59:17;;;;;;;22.30;8.60;;;;;;;;;;5053473;28;20037;-71
2023/01/23 01:01:43;;;;;;;19.27;8.27;;;;;;;;;;5053925;28;20163;-70
2023/01/23 01:04:09;;;;;;;21.00;8.20;;;;;;;;;;5053828;28;20041;-70
2023/01/23 01:06:35;;;;;;;21.08;8.48;;;;;;;;;;5054131;28;20135;-70
2023/01/23 01:09:01;;;;;;;20.60;8.50;;;;;;;;;;5054231;28;20044;-70
2023/01/23 01:11:27;;;;;;;19.35;8.80;;;;;;;;;;5053756;28;20052;-70
2023/01/23 01:13:53;;;;;;;21.00;8.75;;;;;;;;;;5055231;28;20068;-70
2023/01/23 01:16:19;;;;;;;17.65;8.40;;;;;;;;;;5053503;28;20091;-70
2023/01/23 01:18:45;;;;;;;20.13;8.55;;;;;;;;;;5053657;28;20039;-71
2023/01/23 01:21:13;;;;;;;18.42;8.30;;;;;;;;;;5053421;28;20537;-71
2023/01/23 01:23:39;;;;;;;18.30;8.30;;;;;;;;;;5053897;28;20049;-71
2023/01/23 01:26:06;;;;;;;17.55;7.68;;;;;;;;;;5053796;28;20095;-71
2023/01/23 01:28:33;;;;;;;20.13;8.23;;;;;;;;;;5054940;28;20074;-71
2023/01/23 01:31:03;;;;;;;23.23;8.05;;;;;;;;;;5036585;28;20041;-71
2023/01/23 01:33:29;;;;;;;16.95;8.63;;;;;;;;;;5053260;28;20044;-70
2023/01/23 01:35:55;;;;;;;18.08;8.02;;;;;;;;;;5052185;28;20033;-70
2023/01/23 01:38:22;;;;;;;21.00;7.93;;;;;;;;;;5053334;28;20037;-71
2023/01/23 01:40:48;;;;;;;21.48;8.82;;;;;;;;;;5053208;28;20081;-71
2023/01/23 01:43:21;;;;;;;19.73;8.13;;;;;;;;;;5053173;28;20120;-71
2023/01/23 01:45:57;;;;;;;20.30;8.63;;;;;;;;;;5036557;28;20068;-71
2023/01/23 01:48:25;;;;;;;21.98;8.70;;;;;;;;;;5039823;28;20044;-71
2023/01/23 01:50:51;;;;;;;17.83;8.55;;;;;;;;;;5053140;28;20041;-71
2023/01/23 01:53:17;;;;;;;22.73;8.90;;;;;;;;;;5052827;28;20112;-74
2023/01/23 01:55:46;;;;;;;17.65;8.68;;;;;;;;;;5053531;28;20513;-71
2023/01/23 01:58:12;;;;;;;17.75;9.07;;;;;;;;;;5036344;28;20378;-70
2023/01/23 02:00:39;;;;;;;20.10;8.88;;;;;;;;;;5052850;28;20402;-70
2023/01/23 02:03:18;;;;;;;19.05;9.30;;;;;;;;;;5053176;28;20106;-70
2023/01/23 02:05:54;;;;;;;16.55;8.10;;;;;;;;;;5054582;28;20037;-70
2023/01/23 02:08:43;;;;;;;20.98;9.38;;;;;;;;;;5053018;28;20037;-70
2023/01/23 02:11:09;;;;;;;17.23;8.60;;;;;;;;;;5041153;28;20037;-70
2023/01/23 02:13:37;;;;;;;21.00;9.55;;;;;;;;;;5052304;28;20129;-70
2023/01/23 02:16:08;;;;;;;23.92;9.52;;;;;;;;;;5052546;28;20166;-70
2023/01/23 02:18:35;;;;;;;20.02;10.05;;;;;;;;;;5053966;28;20960;-70
2023/01/23 02:21:04;;;;;;;18.65;8.70;;;;;;;;;;5052295;28;20060;-70
2023/01/23 02:23:42;;;;;;;22.48;9.10;;;;;;;;;;5052205;28;20127;-70
2023/01/23 02:26:32;;;;;;;23.13;9.18;;;;;;;;;;5052369;28;20045;-71
2023/01/23 02:28:59;;;;;;;19.63;9.75;;;;;;;;;;5047675;28;20509;-70
2023/01/23 02:31:25;;;;;;;22.30;9.60;;;;;;;;;;5051757;28;20041;-70
2023/01/23 02:33:52;;;;;;;23.50;10.45;;;;;;;;;;5052443;28;20280;-70
2023/01/23 02:36:20;;;;;;;21.23;9.95;;;;;;;;;;5051938;28;20091;-70
2023/01/23 02:38:58;;;;;;;19.30;9.57;;;;;;;;;;5052415;28;20048;-70
2023/01/23 02:41:29;;;;;;;20.85;9.02;;;;;;;;;;5052119;28;20040;-71
2023/01/23 02:43:56;;;;;;;22.48;9.73;;;;;;;;;;5052704;28;20119;-70
2023/01/23 02:46:23;;;;;;;20.38;9.70;;;;;;;;;;5051469;28;20041;-71
2023/01/23 02:48:49;;;;;;;20.10;9.48;;;;;;;;;;5052263;28;20044;-70
2023/01/23 02:51:16;;;;;;;20.40;9.35;;;;;;;;;;5051783;28;20041;-71
2023/01/23 02:53:43;;;;;;;23.48;10.10;;;;;;;;;;5053214;28;20041;-70
2023/01/23 02:56:09;;;;;;;23.75;9.85;;;;;;;;;;5052181;28;21327;-70
2023/01/23 03:01:20;;;;;;;22.25;9.82;;;;;;;;;;5066656;28;20128;-70
2023/01/23 03:03:46;;;;;;;25.48;9.82;;;;;;;;;;5052715;28;20048;-70
2023/01/23 03:06:12;;;;;;;22.88;10.48;;;;;;;;;;5054488;28;20086;-70
2023/01/23 03:08:47;;;;;;;22.58;9.48;;;;;;;;;;5071400;28;20048;-71
2023/01/23 03:11:14;;;;;;;26.80;10.18;;;;;;;;;;5071329;28;20124;-71
2023/01/23 03:13:40;;;;;;;19.25;9.15;;;;;;;;;;5071134;28;20045;-71
2023/01/23 03:16:06;;;;;;;24.77;10.02;;;;;;;;;;5059269;28;20048;-71
2023/01/23 03:18:32;;;;;;;20.98;9.68;;;;;;;;;;5070825;28;20564;-71
2023/01/23 03:21:02;;;;;;;20.30;10.13;;;;;;;;;;5071233;28;20049;-71
2023/01/23 03:23:28;;;;;;;24.45;11.18;;;;;;;;;;5070784;28;20097;-71
2023/01/23 03:25:57;;;;;;;19.60;9.65;;;;;;;;;;5071376;28;20108;-70
2023/01/23 03:31:12;;;;;;;22.48;9.88;;;;;;;;;;5071140;28;20056;-71
2023/01/23 03:33:42;;;;;;;23.73;10.35;;;;;;;;;;5068825;28;20033;-71
2023/01/23 03:36:08;;;;;;;21.52;10.10;;;;;;;;;;5061629;28;20045;-70
2023/01/23 03:38:35;;;;;;;23.58;9.80;;;;;;;;;;5070662;28;20111;-71
2023/01/23 03:43:45;;;;;;;19.38;9.48;;;;;;;;;;5070971;28;20045;-71
2023/01/23 03:46:11;;;;;;;21.92;10.05;;;;;;;;;;5071103;28;20076;-70
2023/01/23 03:48:38;;;;;;;24.27;10.52;;;;;;;;;;5070288;28;20105;-70
2023/01/23 03:51:06;;;;;;;20.30;9.63;;;;;;;;;;5071271;28;20043;-70
2023/01/23 03:53:32;;;;;;;27.88;10.52;;;;;;;;;;5070556;28;20048;-71
2023/01/23 03:55:58;;;;;;;26.17;11.07;;;;;;;;;;5071081;28;20067;-70
2023/01/23 03:58:24;;;;;;;27.75;10.95;;;;;;;;;;5070263;28;20033;-71
2023/01/23 04:00:50;;;;;;;24.15;10.48;;;;;;;;;;5070468;28;20123;-71
2023/01/23 04:03:16;;;;;;;24.65;10.60;;;;;;;;;;5071080;28;20040;-71
2023/01/23 04:05:42;;;;;;;22.45;11.07;;;;;;;;;;5070762;28;20405;-71
2023/01/23 04:08:08;;;;;;;26.05;11.02;;;;;;;;;;5054405;28;20045;-71
2023/01/23 04:10:35;;;;;;;25.05;10.57;;;;;;;;;;5070485;28;20040;-71
2023/01/23 04:13:01;;;;;;;20.42;10.63;;;;;;;;;;5070840;28;20040;-71
2023/01/23 04:15:27;;;;;;;20.73;10.70;;;;;;;;;;5072002;28;20074;-71
2023/01/23 04:17:53;;;;;;;24.08;10.95;;;;;;;;;;5070400;28;20090;-71
2023/01/23 04:20:19;;;;;;;26.40;11.63;;;;;;;;;;5053774;28;20092;-71
2023/01/23 04:22:45;;;;;;;21.55;11.05;;;;;;;;;;5070383;28;20052;-71
2023/01/23 04:25:11;;;;;;;19.30;10.07;;;;;;;;;;5070832;28;20105;-71
2023/01/23 04:27:37;;;;;;;21.27;11.77;;;;;;;;;;5053920;28;20040;-71
2023/01/23 04:30:03;;;;;;;22.55;11.02;;;;;;;;;;5070497;28;20044;-71
2023/01/23 04:32:30;;;;;;;23.42;10.73;;;;;;;;;;5054258;28;20040;-71
2023/01/23 04:34:56;;;;;;;23.30;10.20;;;;;;;;;;5060790;28;20162;-71
2023/01/23 04:37:22;;;;;;;23.33;10.80;;;;;;;;;;5070602;28;20044;-71
2023/01/23 04:39:48;;;;;;;23.67;10.95;;;;;;;;;;5070531;28;20040;-71
2023/01/23 04:42:14;;;;;;;20.90;10.75;;;;;;;;;;5070516;28;20040;-70
2023/01/23 04:44:40;;;;;;;22.80;10.80;;;;;;;;;;5071523;28;20079;-72
2023/01/23 04:47:06;;;;;;;26.10;10.85;;;;;;;;;;5071915;28;20405;-71
2023/01/23 04:49:32;;;;;;;24.08;10.65;;;;;;;;;;5053577;28;20056;-71
2023/01/23 04:51:58;;;;;;;21.27;9.80;;;;;;;;;;5070219;28;20052;-71
2023/01/23 04:54:24;;;;;;;27.90;11.65;;;;;;;;;;5070452;28;20076;-71
2023/01/23 04:56:50;;;;;;;28.20;11.27;;;;;;;;;;5070113;28;20043;-71
2023/01/23 04:59:16;;;;;;;24.95;10.48;;;;;;;;;;5053805;28;20040;-71
2023/01/23 05:01:43;;;;;;;21.45;11.00;;;;;;;;;;5058399;28;20049;-71
2023/01/23 05:04:09;;;;;;;23.67;10.57;;;;;;;;;;5069468;28;20055;-70
2023/01/23 05:06:35;;;;;;;24.48;11.55;;;;;;;;;;5069795;28;20048;-71
2023/01/23 05:09:01;;;;;;;27.38;11.30;;;;;;;;;;5071964;28;20059;-71
2023/01/23 05:11:27;;;;;;;22.83;10.57;;;;;;;;;;5073930;28;20044;-71
2023/01/23 05:13:53;;;;;;;24.52;10.48;;;;;;;;;;5073796;28;20033;-71
2023/01/23 05:16:19;;;;;;;27.95;11.90;;;;;;;;;;5074178;28;20040;-71
2023/01/23 05:18:45;;;;;;;28.70;11.73;;;;;;;;;;5074711;28;20056;-71
2023/01/23 05:21:11;;;;;;;26.30;11.68;;;;;;;;;;5073400;28;20091;-71
2023/01/23 05:23:37;;;;;;;28.27;11.98;;;;;;;;;;5073421;28;20048;-71
2023/01/23 05:26:04;;;;;;;30.13;11.40;;;;;;;;;;5073747;28;20076;-71
2023/01/23 05:28:30;;;;;;;26.25;11.40;;;;;;;;;;5075075;28;20047;-71
2023/01/23 05:30:56;;;;;;;24.05;11.57;;;;;;;;;;5073194;28;20044;-71
2023/01/23 05:33:22;;;;;;;25.77;12.15;;;;;;;;;;5057236;28;20050;-70
2023/01/23 05:35:48;;;;;;;25.70;11.40;;;;;;;;;;5063481;28;20477;-71
2023/01/23 05:38:14;;;;;;;25.45;11.98;;;;;;;;;;5073295;28;20093;-70
2023/01/23 05:40:40;;;;;;;28.50;11.70;;;;;;;;;;5073310;28;20041;-71
2023/01/23 05:43:06;;;;;;;30.30;13.10;;;;;;;;;;5073274;28;20127;-71
2023/01/23 05:45:33;;;;;;;25.05;11.60;;;;;;;;;;5073321;28;20043;-70
2023/01/23 05:47:59;;;;;;;32.90;13.25;;;;;;;;;;5074451;28;21174;-71
2023/01/23 05:50:25;;;;;;;27.95;11.90;;;;;;;;;;5073284;28;20044;-71
2023/01/23 05:52:51;;;;;;;26.85;11.68;;;;;;;;;;5056264;28;20044;-71
2023/01/23 05:55:17;;;;;;;25.63;11.77;;;;;;;;;;5073201;28;20096;-70
2023/01/23 05:57:43;;;;;;;31.35;13.05;;;;;;;;;;5073099;28;20072;-71
2023/01/23 06:00:12;;;;;;;26.20;11.85;;;;;;;;;;5072366;28;20037;-71
2023/01/23 06:02:38;;;;;;;28.25;13.40;;;;;;;;;;5060236;28;20048;-71
2023/01/23 06:05:04;;;;;;;29.60;12.40;;;;;;;;;;5072573;28;20044;-71
2023/01/23 06:07:30;;;;;;;30.00;12.40;;;;;;;;;;5074121;28;20520;-71
2023/01/23 06:09:56;;;;;;;27.58;12.68;;;;;;;;;;5072884;28;20120;-71
2023/01/23 06:12:22;;;;;;;27.52;12.18;;;;;;;;;;5056489;28;20044;-72
2023/01/23 06:14:48;;;;;;;29.20;12.77;;;;;;;;;;5072345;28;20029;-71
2023/01/23 06:17:15;;;;;;;28.85;12.23;;;;;;;;;;5056283;28;20157;-71
2023/01/23 06:19:41;;;;;;;28.25;11.55;;;;;;;;;;5055787;28;20041;-71
2023/01/23 06:22:07;;;;;;;30.83;13.15;;;;;;;;;;5071583;28;20037;-71
2023/01/23 06:24:33;;;;;;;26.92;13.07;;;;;;;;;;5074053;28;20037;-71
2023/01/23 06:26:59;;;;;;;27.10;12.57;;;;;;;;;;5072446;28;20043;-71
2023/01/23 06:29:25;;;;;;;26.83;12.68;;;;;;;;;;5072719;28;20102;-71
2023/01/23 06:31:51;;;;;;;29.15;12.73;;;;;;;;;;5055227;28;20044;-71
2023/01/23 06:34:17;;;;;;;29.45;12.80;;;;;;;;;;5064918;28;20162;-71
2023/01/23 06:36:45;;;;;;;30.10;13.05;;;;;;;;;;5070049;28;20032;-71
2023/01/23 06:39:12;;;;;;;29.90;12.90;;;;;;;;;;5072650;28;20116;-71
2023/01/23 06:41:38;;;;;;;28.92;12.20;;;;;;;;;;5072039;28;20036;-70
2023/01/23 06:44:05;;;;;;;30.25;12.73;;;;;;;;;;5071870;28;20044;-71
2023/01/23 06:46:31;;;;;;;30.10;12.43;;;;;;;;;;5072004;28;20044;-71
2023/01/23 06:48:57;;;;;;;30.73;13.23;;;;;;;;;;5071797;28;20036;-72
2023/01/23 06:51:23;;;;;;;26.23;11.18;;;;;;;;;;5055535;28;20040;-71
2023/01/23 06:53:49;;;;;;;28.33;12.35;;;;;;;;;;5071291;28;20036;-71
2023/01/23 06:56:15;;;;;;;36.22;13.38;;;;;;;;;;5072235;28;20382;-71
2023/01/23 06:58:44;;;;;;;30.23;12.93;;;;;;;;;;5071994;28;20077;-70
2023/01/23 07:01:17;;;;;;;30.38;13.85;;;;;;;;;;5071835;28;20045;-71
2023/01/23 07:03:43;;;;;;;26.45;11.52;;;;;;;;;;5057659;28;20044;-70
2023/01/23 07:06:11;;;;;;;30.40;13.77;;;;;;;;;;5071433;28;20068;-71
2023/01/23 07:08:37;;;;;;;28.05;12.88;;;;;;;;;;5071747;28;20045;-71
2023/01/23 07:11:03;;;;;;;26.52;12.77;;;;;;;;;;5072476;28;20041;-71
2023/01/23 07:13:29;;;;;;;33.58;13.55;;;;;;;;;;5071624;28;20115;-71
2023/01/23 07:15:56;;;;;;;29.50;13.38;;;;;;;;;;5070982;28;20036;-71
2023/01/23 07:18:22;;;;;;;25.98;12.85;;;;;;;;;;5071591;28;20050;-71
2023/01/23 07:20:49;;;;;;;29.65;13.27;;;;;;;;;;5071353;28;20064;-71
2023/01/23 07:23:15;;;;;;;30.52;13.10;;;;;;;;;;5054881;28;20397;-70
2023/01/23 07:25:41;;;;;;;27.38;13.45;;;;;;;;;;5054887;28;20451;-71
2023/01/23 07:28:08;;;;;;;30.67;13.15;;;;;;;;;;5071305;28;20072;-71
2023/01/23 07:30:34;;;;;;;28.40;13.05;;;;;;;;;;5071549;28;20058;-71
2023/01/23 07:33:00;;;;;;;28.23;12.85;;;;;;;;;;5070646;28;20037;-71
2023/01/23 07:35:26;;;;;;;29.83;12.80;;;;;;;;;;5058760;28;20396;-71
2023/01/23 07:37:52;;;;;;;29.73;12.60;;;;;;;;;;5070835;28;20401;-71
2023/01/23 07:40:18;;;;;;;32.72;14.00;;;;;;;;;;5054596;28;20040;-71
2023/01/23 07:42:45;;;;;;;27.40;12.38;;;;;;;;;;5071190;28;20041;-71
2023/01/23 07:45:12;;;;;;;35.65;13.75;;;;;;;;;;5071017;28;20494;-71
2023/01/23 07:47:38;;;;;;;28.55;12.88;;;;;;;;;;5071167;28;20044;-71
2023/01/23 07:50:05;;;;;;;28.45;13.05;;;;;;;;;;5054220;28;20544;-71
2023/01/23 07:52:31;;;;;;;29.65;13.38;;;;;;;;;;5071114;28;20055;-71
2023/01/23 07:54:57;;;;;;;29.23;12.98;;;;;;;;;;5070710;28;20071;-71
2023/01/23 07:57:23;;;;;;;30.48;12.20;;;;;;;;;;5071099;28;20040;-71
2023/01/23 07:59:49;;;;;;;30.80;11.98;;;;;;;;;;5054421;28;20040;-71
2023/01/23 08:02:15;;;;;;;28.30;13.45;;;;;;;;;;5054161;28;20050;-71
2023/01/23 08:04:42;;;;;;;32.88;13.55;;;;;;;;;;5071261;28;20424;-71
2023/01/23 08:07:08;;;;;;;29.08;13.90;;;;;;;;;;5070429;28;20044;-71
2023/01/23 08:09:34;;;;;;;28.30;13.75;;;;;;;;;;5070915;28;20045;-71
2023/01/23 08:12:00;;;;;;;26.33;12.63;;;;;;;;;;5071792;28;20558;-71
2023/01/23 08:14:26;;;;;;;30.63;12.63;;;;;;;;;;5054608;28;20041;-71
2023/01/23 08:16:53;;;;;;;32.53;13.70;;;;;;;;;;5071078;28;20043;-71
2023/01/23 08:19:19;;;;;;;28.50;13.05;;;;;;;;;;5070511;28;20044;-71
2023/01/23 08:21:46;;;;;;;29.70;13.73;;;;;;;;;;5070633;28;20135;-71
2023/01/23 08:24:12;;;;;;;30.55;13.10;;;;;;;;;;5070308;28;20064;-71
2023/01/23 08:26:39;;;;;;;30.25;12.93;;;;;;;;;;5070888;28;20032;-71
2023/01/23 08:29:05;;;;;;;27.73;13.13;;;;;;;;;;5070474;28;20095;-71
2023/01/23 08:31:31;;;;;;;29.42;13.02;;;;;;;;;;5053729;28;20037;-71
2023/01/23 08:33:57;;;;;;;28.48;13.40;;;;;;;;;;5049125;28;20033;-71
2023/01/23 08:36:23;;;;;;;31.42;13.77;;;;;;;;;;5065533;28;20432;-72
2023/01/23 08:38:49;;;;;;;28.50;12.57;;;;;;;;;;5070827;28;20048;-71
2023/01/23 08:41:16;;;;;;;29.20;13.60;;;;;;;;;;5070252;28;20128;-72
2023/01/23 08:43:42;;;;;;;30.60;14.55;;;;;;;;;;5054175;28;20128;-71
2023/01/23 08:46:08;;;;;;;29.85;12.82;;;;;;;;;;5074425;28;20393;-71
2023/01/23 08:48:34;;;;;;;29.17;12.82;;;;;;;;;;5058204;28;20093;-72
2023/01/23 08:51:05;;;;;;;29.23;13.27;;;;;;;;;;5057612;28;20055;-72
2023/01/23 08:53:31;;;;;;;26.17;11.80;;;;;;;;;;5074657;28;20454;-72
2023/01/23 08:56:08;;;;;;;27.35;13.23;;;;;;;;;;5074192;28;20047;-72
2023/01/23 08:58:34;;;;;;;27.15;13.25;;;;;;;;;;5074312;28;20037;-72
2023/01/23 09:01:00;;;;;;;28.42;12.65;;;;;;;;;;5074257;28;20067;-72
2023/01/23 09:03:27;;;;;;;26.63;12.52;;;;;;;;;;5074340;28;20041;-72
2023/01/23 09:05:53;;;;;;;29.23;13.43;;;;;;;;;;5074231;28;20493;-72
2023/01/23 09:08:19;;;;;;;27.90;13.45;;;;;;;;;;5075182;28;20073;-71
2023/01/23 09:10:45;;;;;;;26.02;12.05;;;;;;;;;;5074025;28;20045;-71
2023/01/23 09:13:11;;;;;;;28.98;12.68;;;;;;;;;;5074764;28;20085;-71
2023/01/23 09:15:38;;;;;;;25.83;12.88;;;;;;;;;;5057348;28;20044;-71
2023/01/23 09:18:04;;;;;;;28.85;13.13;;;;;;;;;;5073335;28;20097;-71
2023/01/23 09:20:30;;;;;;;26.80;12.30;;;;;;;;;;5073896;28;20052;-72
2023/01/23 09:22:57;;;;;;;30.20;13.13;;;;;;;;;;5057067;28;20071;-71
2023/01/23 09:25:23;;;;;;;26.95;12.77;;;;;;;;;;5073166;28;20044;-71
2023/01/23 09:27:49;;;;;;;27.13;13.02;;;;;;;;;;5073564;28;20072;-71
2023/01/23 09:30:15;;;;;;;27.13;13.20;;;;;;;;;;5073311;28;20076;-71
2023/01/23 09:32:41;;;;;;;29.42;12.70;;;;;;;;;;5073963;28;20405;-71
2023/01/23 09:35:07;;;;;;;26.33;11.82;;;;;;;;;;5063698;28;20490;-71
2023/01/23 09:40:19;;;;;;;25.73;12.15;;;;;;;;;;5073269;28;20079;-71
2023/01/23 09:42:46;;;;;;;25.98;13.10;;;;;;;;;;5073651;28;20379;-71
2023/01/23 09:45:16;;;;;;;26.33;12.15;;;;;;;;;;5072958;28;20048;-71
2023/01/23 09:47:44;;;;;;;27.88;12.85;;;;;;;;;;5056602;28;20077;-71
2023/01/23 09:50:17;;;;;;;28.33;12.45;;;;;;;;;;5073225;28;20491;-71
2023/01/23 09:52:53;;;;;;;25.92;13.52;;;;;;;;;;5056609;28;20072;-71
2023/01/23 09:55:29;;;;;;;25.40;12.45;;;;;;;;;;5072418;28;20091;-71
2023/01/23 09:57:56;;;;;;;26.00;11.55;;;;;;;;;;5074390;28;20063;-71
2023/01/23 10:00:30;;;;;;;21.20;11.30;;;;;;;;;;5072750;28;20045;-71
2023/01/23 10:02:57;;;;;;;25.50;10.70;;;;;;;;;;5073319;28;20055;-71
2023/01/23 10:05:42;;;;;;;26.55;12.50;;;;;;;;;;5072675;28;20075;-71
2023/01/23 10:08:26;;;;;;;21.85;11.30;;;;;;;;;;5079281;28;20063;-71
2023/01/23 10:10:59;;;;;;;23.10;11.35;;;;;;;;;;5072753;28;20052;-71
2023/01/23 10:13:47;;;;;;;21.75;11.13;;;;;;;;;;5055590;28;20120;-71
2023/01/23 10:16:22;;;;;;;22.70;11.68;;;;;;;;;;5072380;28;20090;-72
2023/01/23 10:18:58;;;;;;;25.48;12.55;;;;;;;;;;5072757;28;20044;-71
2023/01/23 10:21:36;;;;;;;21.13;11.07;;;;;;;;;;5073416;28;20056;-71
2023/01/23 10:24:08;;;;;;;20.42;11.20;;;;;;;;;;5056125;28;20042;-71
2023/01/23 10:26:38;;;;;;;22.42;11.38;;;;;;;;;;5072398;28;20033;-71
2023/01/23 10:29:23;;;;;;;22.83;11.63;;;;;;;;;;5072661;28;20044;-71
2023/01/23 10:31:56;;;;;;;23.55;11.85;;;;;;;;;;5055910;28;20036;-71
2023/01/23 10:34:33;;;;;;;26.40;11.65;;;;;;;;;;5064396;28;20532;-71
2023/01/23 10:37:05;;;;;;;21.90;11.38;;;;;;;;;;5072900;28;20036;-71
2023/01/23 10:39:34;;;;;;;17.00;9.30;;;;;;;;;;5055354;28;20044;-71
2023/01/23 10:42:00;;;;;;;20.48;10.43;;;;;;;;;;5072369;28;20068;-71
2023/01/23 10:44:27;;;;;;;20.42;10.32;;;;;;;;;;5071851;28;20044;-71
2023/01/23 10:46:55;;;;;;;18.73;10.05;;;;;;;;;;5072332;28;20123;-71
2023/01/23 10:49:28;;;;;;;20.38;11.00;;;;;;;;;;5071717;28;20052;-71
2023/01/23 10:51:54;;;;;;;21.88;11.18;;;;;;;;;;5072267;28;20557;-71
2023/01/23 10:54:21;;;;;;;20.73;10.65;;;;;;;;;;5072004;28;20512;-71
2023/01/23 10:56:47;;;;;;;22.88;10.13;;;;;;;;;;5072257;28;20040;-71
2023/01/23 10:59:33;;;;;;;19.45;10.38;;;;;;;;;;5071823;28;20036;-71
2023/01/23 11:02:16;;;;;;;19.80;9.75;;;;;;;;;;5071666;28;20063;-71
2023/01/23 11:04:43;;;;;;;21.83;10.25;;;;;;;;;;5071813;28;20052;-71
2023/01/23 11:07:17;;;;;;;17.55;9.32;;;;;;;;;;5071647;28;20055;-71
2023/01/23 11:09:57;;;;;;;19.73;10.18;;;;;;;;;;5071571;28;20037;-71
2023/01/23 11:12:33;;;;;;;17.73;9.73;;;;;;;;;;5071188;28;20119;-71
2023/01/23 11:15:18;;;;;;;16.67;9.43;;;;;;;;;;5105472;28;20082;-71
2023/01/23 11:17:44;;;;;;;19.20;9.48;;;;;;;;;;5070218;28;20036;-71
2023/01/23 11:20:25;;;;;;;16.95;8.35;;;;;;;;;;5058862;28;20055;-71
2023/01/23 11:23:18;;;;;;;14.50;7.90;;;;;;;;;;5071432;28;20052;-71
2023/01/23 11:25:45;;;;;;;14.15;7.82;;;;;;;;;;5069855;28;20040;-71
2023/01/23 11:28:30;;;;;;;14.80;8.10;;;;;;;;;;5071207;28;20044;-71
2023/01/23 11:31:08;;;;;;;17.52;8.27;;;;;;;;;;5071599;28;20516;-71
2023/01/23 11:33:41;;;;;;;14.10;7.70;;;;;;;;;;5069249;28;20112;-71
2023/01/23 11:36:21;;;;;;;13.90;8.13;;;;;;;;;;5064148;28;20127;-71
2023/01/23 11:38:53;;;;;;;14.15;7.95;;;;;;;;;;5071602;28;20033;-71
2023/01/23 11:41:19;;;;;;;15.40;7.53;;;;;;;;;;5054881;28;20056;-71
2023/01/23 11:43:45;;;;;;;13.25;7.15;;;;;;;;;;5070949;28;20545;-71
2023/01/23 11:46:30;;;;;;;12.95;7.35;;;;;;;;;;5071048;28;20122;-71
2023/01/23 11:49:04;;;;;;;12.40;6.57;;;;;;;;;;5044058;28;20036;-71
2023/01/23 11:51:30;;;;;;;11.25;7.03;;;;;;;;;;5070647;28;20044;-71
2023/01/23 11:54:16;;;;;;;14.20;6.70;;;;;;;;;;5071083;28;20048;-71
2023/01/23 11:56:51;;;;;;;11.48;6.95;;;;;;;;;;5070380;28;20097;-71
2023/01/23 11:59:23;;;;;;;12.52;6.45;;;;;;;;;;5070985;28;20044;-72
2023/01/23 12:01:58;;;;;;;13.00;6.90;;;;;;;;;;5070864;28;20085;-71
2023/01/23 12:04:36;;;;;;;12.97;6.93;;;;;;;;;;5070626;28;20040;-71
2023/01/23 12:07:11;;;;;;;11.25;6.50;;;;;;;;;;5071022;28;20075;-71
2023/01/23 12:10:02;;;;;;;9.77;4.68;;;;;;;;;;5070887;28;20055;-71
2023/01/23 12:12:57;;;;;;;12.40;6.20;;;;;;;;;;5070368;28;20111;-71
2023/01/23 12:15:43;;;;;;;11.00;5.80;;;;;;;;;;5062265;28;20040;-71
2023/01/23 12:18:09;;;;;;;13.38;6.05;;;;;;;;;;5070719;28;20048;-71
2023/01/23 12:20:53;;;;;;;10.63;6.60;;;;;;;;;;5076327;28;20509;-71
2023/01/23 12:23:19;;;;;;;13.13;6.72;;;;;;;;;;5077807;28;20382;-71
2023/01/23 12:26:01;;;;;;;9.32;6.03;;;;;;;;;;5076961;28;20049;-71
2023/01/23 12:28:33;;;;;;;8.52;5.50;;;;;;;;;;5077424;28;20044;-71
2023/01/23 12:31:08;;;;;;;11.60;6.10;;;;;;;;;;5077175;28;20044;-71
2023/01/23 12:33:34;;;;;;;10.27;6.23;;;;;;;;;;5058818;28;20064;-71
2023/01/23 12:36:06;;;;;;;11.88;6.20;;;;;;;;;;5052598;28;20037;-71
2023/01/23 12:38:33;;;;;;;10.95;6.63;;;;;;;;;;5060584;28;20481;-72
2023/01/23 12:41:08;;;;;;;9.95;6.30;;;;;;;;;;5077340;28;20048;-71
2023/01/23 12:43:38;;;;;;;11.13;6.28;;;;;;;;;;5077234;28;20036;-71
2023/01/23 12:46:10;;;;;;;9.57;6.40;;;;;;;;;;5077041;28;20052;-71
2023/01/23 12:48:59;;;;;;;11.38;6.72;;;;;;;;;;5076696;28;20044;-71
2023/01/23 12:51:33;;;;;;;10.75;6.00;;;;;;;;;;5071778;28;20144;-71
2023/01/23 12:54:00;;;;;;;11.82;6.15;;;;;;;;;;5049177;28;20039;-71
2023/01/23 12:56:30;;;;;;;10.10;5.93;;;;;;;;;;5078758;28;20036;-71
2023/01/23 12:59:09;;;;;;;12.88;6.07;;;;;;;;;;5077128;28;20033;-71
2023/01/23 13:01:41;;;;;;;9.88;5.55;;;;;;;;;;5077136;28;20044;-71
2023/01/23 13:04:10;;;;;;;10.95;6.28;;;;;;;;;;5077308;28;20540;-71
2023/01/23 13:06:45;;;;;;;8.52;5.20;;;;;;;;;;5077097;28;20040;-71
2023/01/23 13:09:21;;;;;;;8.30;5.03;;;;;;;;;;5077344;28;20412;-71
2023/01/23 13:11:47;;;;;;;6.75;4.20;;;;;;;;;;5076839;28;20044;-71
2023/01/23 13:14:16;;;;;;;8.63;5.30;;;;;;;;;;5076932;28;20037;-71
2023/01/23 13:16:46;;;;;;;8.35;4.70;;;;;;;;;;5076544;28;20071;-71
2023/01/23 13:22:17;;;;;;;8.45;5.13;;;;;;;;;;5058333;28;20059;-72
2023/01/23 13:27:31;;;;;;;9.43;5.25;;;;;;;;;;5077142;28;20489;-71
2023/01/23 13:29:57;;;;;;;7.43;5.13;;;;;;;;;;5076041;28;20032;-71
2023/01/23 13:32:27;;;;;;;8.27;4.75;;;;;;;;;;5057055;28;20056;-71
2023/01/23 13:34:53;;;;;;;8.98;5.35;;;;;;;;;;5063470;28;20037;-71
2023/01/23 13:37:26;;;;;;;8.60;5.20;;;;;;;;;;5073377;28;20094;-71
2023/01/23 13:40:10;;;;;;;7.75;4.82;;;;;;;;;;5073383;28;20447;-71
2023/01/23 13:42:36;;;;;;;9.50;4.68;;;;;;;;;;5074358;28;20447;-71
2023/01/23 13:45:26;;;;;;;6.90;4.60;;;;;;;;;;5074640;28;20489;-71
2023/01/23 13:51:07;;;;;;;8.75;4.40;;;;;;;;;;5051694;28;20106;-71
2023/01/23 13:56:37;;;;;;;8.60;4.65;;;;;;;;;;5073346;28;20056;-71
2023/01/23 13:59:05;;;;;;;6.70;4.20;;;;;;;;;;5073327;28;20115;-71
2023/01/23 14:07:41;;;;;;;10.40;5.10;;;;;;;;;;5073218;28;20509;-71
2023/01/23 14:10:20;;;;;;;7.85;4.70;;;;;;;;;;5073440;28;20511;-72
2023/01/23 14:12:46;;;;;;;9.70;4.82;;;;;;;;;;5072534;28;20040;-72
2023/01/23 14:18:13;;;;;;;8.27;4.85;;;;;;;;;;5072552;28;20118;-72
2023/01/23 14:20:39;;;;;;;8.60;5.38;;;;;;;;;;5073415;28;20056;-72
2023/01/23 14:23:35;;;;;;;8.25;5.25;;;;;;;;;;5073677;28;20090;-72
2023/01/23 14:26:02;;;;;;;10.57;5.45;;;;;;;;;;5064457;28;20425;-72
2023/01/23 14:28:29;;;;;;;9.40;5.45;;;;;;;;;;5073033;28;20113;-73
2023/01/23 14:30:59;;;;;;;9.40;5.68;;;;;;;;;;5072381;28;20118;-72
2023/01/23 14:33:28;;;;;;;10.73;5.85;;;;;;;;;;5071804;28;20051;-70
2023/01/23 14:35:55;;;;;;;9.80;5.97;;;;;;;;;;5063574;28;20040;-71
2023/01/23 14:38:32;;;;;;;9.55;5.80;;;;;;;;;;5072509;28;20037;-71
2023/01/23 14:40:59;;;;;;;11.40;6.15;;;;;;;;;;5072085;28;20109;-71
2023/01/23 14:43:26;;;;;;;12.00;6.10;;;;;;;;;;5072183;28;20048;-72
2023/01/23 14:46:04;;;;;;;9.80;5.97;;;;;;;;;;5072000;28;20044;-71
2023/01/23 14:48:33;;;;;;;8.82;5.90;;;;;;;;;;5073339;28;20787;-71
2023/01/23 14:51:22;;;;;;;9.48;5.75;;;;;;;;;;5073501;28;20044;-73
2023/01/23 14:54:11;;;;;;;13.35;6.28;;;;;;;;;;5067146;28;20067;-72
2023/01/23 14:56:39;;;;;;;10.10;5.95;;;;;;;;;;5071443;28;20043;-72
2023/01/23 14:59:07;;;;;;;12.05;6.10;;;;;;;;;;5071856;28;20543;-71
2023/01/23 15:01:34;;;;;;;11.18;5.95;;;;;;;;;;5055453;28;20070;-72
2023/01/23 15:04:02;;;;;;;10.30;6.10;;;;;;;;;;5071411;28;20032;-72
2023/01/23 15:06:29;;;;;;;10.35;6.55;;;;;;;;;;5105760;28;20041;-72